sensor_id;sensor_type;location;lat;lon;timestamp;pressure;altitude;pressure_sealevel;temperature;humidity
8360;BME280;4217;48.762;11.428;2022-11-20T00:05:26;97004.47;;;7.78;63.79
8360;BME280;4217;48.762;11.428;2022-11-20T00:15:28;96996.75;;;7.88;63.85
8360;BME280;4217;48.762;11.428;2022-11-20T00:25:29;96996.88;;;7.93;63.92
8360;BME280;4217;48.762;11.428;2022-11-20T00:35:30;97001.47;;;7.86;64.01
8360;BME280;4217;48.762;11.428;2022-11-20T00:45:32;97005.13;;;8.01;64.02
8360;BME280;4217;48.762;11.428;2022-11-20T00:55:33;97017.66;;;8.16;63.94
8360;BME280;4217;48.762;11.428;2022-11-20T01:05:35;97015.13;;;8.21;63.99
8360;BME280;4217;48.762;11.428;2022-11-20T01:15:37;97016.25;;;8.42;63.59
8360;BME280;4217;48.762;11.428;2022-11-20T01:25:38;97025.06;;;8.36;63.59
8360;BME280;4217;48.762;11.428;2022-11-20T01:35:40;97020.09;;;8.51;63.63
8360;BME280;4217;48.762;11.428;2022-11-20T01:46:03;97013.34;;;8.38;63.23
8360;BME280;4217;48.762;11.428;2022-11-20T01:56:09;97024.63;;;8.39;64.10
8360;BME280;4217;48.762;11.428;2022-11-20T02:06:19;97024.69;;;8.44;63.89
8360;BME280;4217;48.762;11.428;2022-11-20T02:16:28;97014.78;;;8.46;63.66
8360;BME280;4217;48.762;11.428;2022-11-20T02:26:38;97015.31;;;8.48;64.16
8360;BME280;4217;48.762;11.428;2022-11-20T02:36:41;97011.03;;;8.59;63.98
8360;BME280;4217;48.762;11.428;2022-11-20T02:46:43;96988.28;;;8.64;63.99
8360;BME280;4217;48.762;11.428;2022-11-20T02:56:45;96998.72;;;8.59;64.25
8360;BME280;4217;48.762;11.428;2022-11-20T03:06:46;97004.41;;;8.56;64.49
8360;BME280;4217;48.762;11.428;2022-11-20T03:16:48;96985.25;;;8.72;64.08
8360;BME280;4217;48.762;11.428;2022-11-20T03:26:50;96986.41;;;8.82;64.13
8360;BME280;4217;48.762;11.428;2022-11-20T03:36:51;96992.69;;;8.80;64.29
8360;BME280;4217;48.762;11.428;2022-11-20T03:46:53;96989.97;;;8.92;64.28
8360;BME280;4217;48.762;11.428;2022-11-20T03:56:54;96988.25;;;8.81;64.74
8360;BME280;4217;48.762;11.428;2022-11-20T04:06:56;96982.28;;;9.07;64.06
8360;BME280;4217;48.762;11.428;2022-11-20T04:16:57;96988.69;;;9.16;64.37
8360;BME280;4217;48.762;11.428;2022-11-20T04:26:59;96981.63;;;9.17;64.69
8360;BME280;4217;48.762;11.428;2022-11-20T04:37:00;96974.28;;;9.19;65.09
8360;BME280;4217;48.762;11.428;2022-11-20T04:47:02;96974.97;;;9.09;66.08
8360;BME280;4217;48.762;11.428;2022-11-20T04:57:04;96982.56;;;9.33;65.90
8360;BME280;4217;48.762;11.428;2022-11-20T05:07:10;96979.75;;;9.39;66.08
8360;BME280;4217;48.762;11.428;2022-11-20T05:17:11;96978.94;;;8.90;67.77
8360;BME280;4217;48.762;11.428;2022-11-20T05:27:13;96982.34;;;9.12;66.85
8360;BME280;4217;48.762;11.428;2022-11-20T05:37:16;96984.94;;;9.34;65.86
8360;BME280;4217;48.762;11.428;2022-11-20T05:47:17;96979.00;;;9.17;66.42
8360;BME280;4217;48.762;11.428;2022-11-20T05:57:19;96984.00;;;9.18;66.50
8360;BME280;4217;48.762;11.428;2022-11-20T06:07:20;96991.13;;;9.45;65.42
8360;BME280;4217;48.762;11.428;2022-11-20T06:17:22;96990.81;;;9.41;65.62
8360;BME280;4217;48.762;11.428;2022-11-20T06:27:23;97000.22;;;9.37;65.48
8360;BME280;4217;48.762;11.428;2022-11-20T06:37:25;97004.66;;;9.37;65.06
8360;BME280;4217;48.762;11.428;2022-11-20T06:47:26;97006.69;;;9.30;65.20
8360;BME280;4217;48.762;11.428;2022-11-20T06:57:28;97011.69;;;9.31;65.08
8360;BME280;4217;48.762;11.428;2022-11-20T07:07:29;97025.63;;;9.58;64.66
8360;BME280;4217;48.762;11.428;2022-11-20T07:17:31;97018.91;;;9.68;64.27
8360;BME280;4217;48.762;11.428;2022-11-20T07:27:33;97021.94;;;9.81;63.84
8360;BME280;4217;48.762;11.428;2022-11-20T07:37:34;97026.19;;;9.87;63.82
8360;BME280;4217;48.762;11.428;2022-11-20T07:47:36;97027.22;;;9.86;63.53
8360;BME280;4217;48.762;11.428;2022-11-20T07:57:38;97025.38;;;10.14;62.84
8360;BME280;4217;48.762;11.428;2022-11-20T08:07:41;97013.63;;;9.89;63.51
8360;BME280;4217;48.762;11.428;2022-11-20T08:17:43;97013.81;;;9.83;63.27
8360;BME280;4217;48.762;11.428;2022-11-20T08:28:07;97017.91;;;10.00;62.40
8360;BME280;4217;48.762;11.428;2022-11-20T08:38:20;97027.78;;;9.88;62.42
8360;BME280;4217;48.762;11.428;2022-11-20T08:48:21;97044.91;;;10.50;61.29
8360;BME280;4217;48.762;11.428;2022-11-20T08:58:24;97024.75;;;10.65;60.92
8360;BME280;4217;48.762;11.428;2022-11-20T09:08:26;97029.00;;;11.24;59.00
8360;BME280;4217;48.762;11.428;2022-11-20T09:18:28;97027.94;;;11.19;58.37
8360;BME280;4217;48.762;11.428;2022-11-20T09:28:32;97016.13;;;11.27;57.92
8360;BME280;4217;48.762;11.428;2022-11-20T09:38:33;97015.47;;;11.00;58.72
8360;BME280;4217;48.762;11.428;2022-11-20T09:49:00;97013.44;;;11.12;58.04
8360;BME280;4217;48.762;11.428;2022-11-20T09:59:05;97011.13;;;11.36;57.78
8360;BME280;4217;48.762;11.428;2022-11-20T10:09:19;97007.34;;;11.74;56.88
8360;BME280;4217;48.762;11.428;2022-11-20T10:29:36;96995.50;;;11.81;56.45
8360;BME280;4217;48.762;11.428;2022-11-20T10:39:50;97002.38;;;11.97;56.09
8360;BME280;4217;48.762;11.428;2022-11-20T10:49:55;97001.28;;;11.83;56.66
8360;BME280;4217;48.762;11.428;2022-11-20T11:00:09;97007.84;;;11.76;56.87
8360;BME280;4217;48.762;11.428;2022-11-20T11:10:19;96997.38;;;12.06;56.13
8360;BME280;4217;48.762;11.428;2022-11-20T11:20:24;96987.34;;;12.28;55.63
8360;BME280;4217;48.762;11.428;2022-11-20T11:30:27;96987.06;;;11.79;57.69
8360;BME280;4217;48.762;11.428;2022-11-20T11:40:34;96983.06;;;11.67;58.57
8360;BME280;4217;48.762;11.428;2022-11-20T11:50:35;96968.38;;;12.06;58.01
8360;BME280;4217;48.762;11.428;2022-11-20T12:00:39;96965.19;;;12.29;57.75
8360;BME280;4217;48.762;11.428;2022-11-20T12:10:55;96959.81;;;12.90;56.43
8360;BME280;4217;48.762;11.428;2022-11-20T12:21:07;96946.88;;;12.89;56.26
8360;BME280;4217;48.762;11.428;2022-11-20T12:31:21;96947.81;;;13.23;55.93
8360;BME280;4217;48.762;11.428;2022-11-20T12:52:37;96953.75;;;12.85;54.85
8360;BME280;4217;48.762;11.428;2022-11-20T13:12:50;96927.22;;;12.51;55.45
8360;BME280;4217;48.762;11.428;2022-11-20T13:22:55;96921.22;;;12.20;56.14
8360;BME280;4217;48.762;11.428;2022-11-20T13:33:08;96915.94;;;11.89;56.88
8360;BME280;4217;48.762;11.428;2022-11-20T13:43:19;96905.94;;;12.07;56.76
8360;BME280;4217;48.762;11.428;2022-11-20T14:03:43;96921.75;;;11.86;57.63
8360;BME280;4217;48.762;11.428;2022-11-20T14:14:17;96923.25;;;11.52;57.89
8360;BME280;4217;48.762;11.428;2022-11-20T14:24:24;96930.38;;;11.41;58.38
8360;BME280;4217;48.762;11.428;2022-11-20T14:34:29;96929.56;;;11.46;57.97
8360;BME280;4217;48.762;11.428;2022-11-20T14:44:33;96921.66;;;11.41;58.31
8360;BME280;4217;48.762;11.428;2022-11-20T14:54:50;96931.66;;;11.29;58.55
8360;BME280;4217;48.762;11.428;2022-11-20T15:04:59;96927.22;;;10.72;59.48
8360;BME280;4217;48.762;11.428;2022-11-20T15:15:02;96922.84;;;10.41;60.00
8360;BME280;4217;48.762;11.428;2022-11-20T15:25:15;96926.78;;;10.38;60.14
8360;BME280;4217;48.762;11.428;2022-11-20T15:35:17;96928.72;;;10.58;60.42
8360;BME280;4217;48.762;11.428;2022-11-20T15:45:18;96916.69;;;10.67;59.81
8360;BME280;4217;48.762;11.428;2022-11-20T15:55:20;96923.66;;;10.41;60.41
8360;BME280;4217;48.762;11.428;2022-11-20T16:05:21;96923.34;;;10.37;60.89
8360;BME280;4217;48.762;11.428;2022-11-20T16:15:24;96914.88;;;10.72;60.37
8360;BME280;4217;48.762;11.428;2022-11-20T16:25:44;96899.16;;;10.88;60.10
8360;BME280;4217;48.762;11.428;2022-11-20T16:35:46;96903.69;;;10.45;60.58
8360;BME280;4217;48.762;11.428;2022-11-20T16:45:47;96894.72;;;10.36;60.55
8360;BME280;4217;48.762;11.428;2022-11-20T16:55:50;96883.13;;;9.95;60.86
8360;BME280;4217;48.762;11.428;2022-11-20T17:05:53;96882.19;;;9.74;61.18
8360;BME280;4217;48.762;11.428;2022-11-20T17:16:00;96880.00;;;9.66;61.55
8360;BME280;4217;48.762;11.428;2022-11-20T17:36:15;96881.00;;;9.60;62.73
8360;BME280;4217;48.762;11.428;2022-11-20T17:46:19;96872.91;;;9.67;62.76
8360;BME280;4217;48.762;11.428;2022-11-20T17:56:21;96858.34;;;9.49;63.51
8360;BME280;4217;48.762;11.428;2022-11-20T18:06:42;96858.00;;;9.13;63.92
8360;BME280;4217;48.762;11.428;2022-11-20T18:16:49;96847.78;;;8.85;64.30
8360;BME280;4217;48.762;11.428;2022-11-20T18:26:51;96847.06;;;8.68;64.54
8360;BME280;4217;48.762;11.428;2022-11-20T18:36:53;96833.53;;;8.54;64.69
8360;BME280;4217;48.762;11.428;2022-11-20T18:46:54;96829.75;;;8.45;65.16
8360;BME280;4217;48.762;11.428;2022-11-20T18:56:56;96817.94;;;8.43;65.50
8360;BME280;4217;48.762;11.428;2022-11-20T19:06:57;96798.63;;;8.49;65.43
8360;BME280;4217;48.762;11.428;2022-11-20T19:16:59;96801.00;;;8.50;65.25
8360;BME280;4217;48.762;11.428;2022-11-20T19:27:01;96797.09;;;8.53;65.24
8360;BME280;4217;48.762;11.428;2022-11-20T19:37:02;96786.66;;;8.58;65.07
8360;BME280;4217;48.762;11.428;2022-11-20T19:47:05;96777.50;;;8.60;65.52
8360;BME280;4217;48.762;11.428;2022-11-20T19:57:14;96765.00;;;8.67;65.61
8360;BME280;4217;48.762;11.428;2022-11-20T20:07:16;96756.63;;;8.65;65.52
8360;BME280;4217;48.762;11.428;2022-11-20T20:17:18;96752.38;;;8.59;65.08
8360;BME280;4217;48.762;11.428;2022-11-20T20:27:19;96745.16;;;8.71;64.64
8360;BME280;4217;48.762;11.428;2022-11-20T20:37:20;96738.28;;;8.97;64.60
8360;BME280;4217;48.762;11.428;2022-11-20T20:47:22;96725.34;;;9.17;64.35
8360;BME280;4217;48.762;11.428;2022-11-20T20:57:23;96734.66;;;9.40;63.90
8360;BME280;4217;48.762;11.428;2022-11-20T21:07:25;96733.41;;;9.48;63.56
8360;BME280;4217;48.762;11.428;2022-11-20T21:17:27;96741.22;;;9.38;63.81
8360;BME280;4217;48.762;11.428;2022-11-20T21:27:28;96746.56;;;9.16;64.02
8360;BME280;4217;48.762;11.428;2022-11-20T21:37:30;96737.13;;;9.15;63.94
8360;BME280;4217;48.762;11.428;2022-11-20T21:47:31;96741.34;;;9.21;64.15
8360;BME280;4217;48.762;11.428;2022-11-20T21:57:33;96727.56;;;8.99;65.41
8360;BME280;4217;48.762;11.428;2022-11-20T22:07:35;96730.03;;;9.15;64.32
8360;BME280;4217;48.762;11.428;2022-11-20T22:17:36;96709.66;;;9.28;64.50
8360;BME280;4217;48.762;11.428;2022-11-20T22:27:56;96698.56;;;9.15;64.73
8360;BME280;4217;48.762;11.428;2022-11-20T22:37:58;96688.91;;;9.26;64.97
8360;BME280;4217;48.762;11.428;2022-11-20T22:47:59;96699.19;;;9.33;65.05
8360;BME280;4217;48.762;11.428;2022-11-20T22:58:01;96691.03;;;9.24;65.61
8360;BME280;4217;48.762;11.428;2022-11-20T23:08:02;96687.91;;;8.95;66.82
8360;BME280;4217;48.762;11.428;2022-11-20T23:18:04;96685.06;;;8.97;66.73
8360;BME280;4217;48.762;11.428;2022-11-20T23:28:05;96685.34;;;8.68;67.26
8360;BME280;4217;48.762;11.428;2022-11-20T23:38:07;96687.47;;;8.71;67.74
8360;BME280;4217;48.762;11.428;2022-11-20T23:48:09;96679.03;;;8.64;68.15
8360;BME280;4217;48.762;11.428;2022-11-20T23:58:11;96675.50;;;8.54;68.39
